createdAt,value
2018-09-26T00:00:40.152Z,9.20
2018-09-26T00:05:16.153Z,9.20
2018-09-26T00:07:45.362Z,9.20
2018-09-26T00:10:15.066Z,9.10
2018-09-26T00:12:43.492Z,9.10
2018-09-26T00:15:12.041Z,9.00
2018-09-26T00:17:40.403Z,9.00
2018-09-26T00:20:10.029Z,9.00
2018-09-26T00:22:38.405Z,9.00
2018-09-26T00:25:06.974Z,9.20
2018-09-26T00:27:35.456Z,9.20
2018-09-26T00:30:04.543Z,9.10
2018-09-26T00:32:33.042Z,9.20
2018-09-26T00:35:01.456Z,9.20
2018-09-26T00:37:29.899Z,9.10
2018-09-26T00:39:58.278Z,8.90
2018-09-26T00:42:26.706Z,8.90
2018-09-26T00:44:55.113Z,8.80
2018-09-26T00:47:23.537Z,8.90
2018-09-26T00:49:51.915Z,8.90
2018-09-26T00:52:20.337Z,8.80
2018-09-26T00:54:48.791Z,8.90
2018-09-26T00:57:17.534Z,9.00
2018-09-26T00:59:45.904Z,9.00
2018-09-26T01:02:14.323Z,9.00
2018-09-26T01:04:42.729Z,9.00
2018-09-26T01:07:11.137Z,9.00
2018-09-26T01:09:39.572Z,9.00
2018-09-26T01:12:07.972Z,8.90
2018-09-26T01:14:36.961Z,8.90
2018-09-26T01:17:05.403Z,8.80
2018-09-26T01:19:33.740Z,8.70
2018-09-26T01:22:02.143Z,8.70
2018-09-26T01:24:30.809Z,8.60
2018-09-26T01:27:00.045Z,8.70
2018-09-26T01:29:28.414Z,8.70
2018-09-26T01:31:56.822Z,8.60
2018-09-26T01:34:25.489Z,8.60
2018-09-26T01:36:54.020Z,8.60
2018-09-26T01:39:22.444Z,8.50
2018-09-26T01:41:50.887Z,8.50
2018-09-26T01:44:20.014Z,8.40
2018-09-26T01:46:49.068Z,8.30
2018-09-26T01:49:17.585Z,8.20
2018-09-26T01:51:46.073Z,8.20
2018-09-26T01:54:14.568Z,8.10
2018-09-26T01:56:42.981Z,8.10
2018-09-26T01:59:11.383Z,8.10
2018-09-26T02:01:39.949Z,8.10
2018-09-26T02:04:08.431Z,8.00
2018-09-26T02:06:36.802Z,8.00
2018-09-26T02:09:08.281Z,7.90
2018-09-26T02:11:36.843Z,7.90
2018-09-26T02:14:05.377Z,8.00
2018-09-26T02:16:33.830Z,7.90
2018-09-26T02:19:02.346Z,7.90
2018-09-26T02:21:31.343Z,7.90
2018-09-26T02:23:59.751Z,7.90
2018-09-26T02:26:28.168Z,7.80
2018-09-26T02:28:56.577Z,7.80
2018-09-26T02:31:25.040Z,7.70
2018-09-26T02:33:53.400Z,7.70
2018-09-26T02:36:21.812Z,7.70
2018-09-26T02:38:50.190Z,7.70
2018-09-26T02:41:18.632Z,7.60
2018-09-26T02:43:47.156Z,7.60
2018-09-26T02:46:15.548Z,7.60
2018-09-26T02:48:49.460Z,7.60
2018-09-26T02:51:18.008Z,7.60
2018-09-26T02:53:46.634Z,7.60
2018-09-26T02:56:15.028Z,7.50
2018-09-26T02:58:43.479Z,7.50
2018-09-26T03:01:11.912Z,7.50
2018-09-26T03:03:40.427Z,7.50
2018-09-26T03:06:09.364Z,7.50
2018-09-26T03:08:37.762Z,7.50
2018-09-26T03:11:06.157Z,7.50
2018-09-26T03:13:34.611Z,7.50
2018-09-26T03:16:02.990Z,7.40
2018-09-26T03:18:31.506Z,7.50
2018-09-26T03:21:00.458Z,7.60
2018-09-26T03:23:29.379Z,7.60
2018-09-26T03:25:57.876Z,7.60
2018-09-26T03:28:26.246Z,7.60
2018-09-26T03:30:54.726Z,7.70
2018-09-26T03:33:23.286Z,7.70
2018-09-26T03:35:51.734Z,7.60
2018-09-26T03:38:20.733Z,7.60
2018-09-26T03:40:49.151Z,7.50
2018-09-26T03:43:17.601Z,7.40
2018-09-26T03:45:46.081Z,7.40
2018-09-26T03:48:14.549Z,7.40
2018-09-26T03:50:42.920Z,7.30
2018-09-26T03:53:11.368Z,7.30
2018-09-26T03:55:39.783Z,7.30
2018-09-26T03:58:08.846Z,7.30
2018-09-26T04:00:37.547Z,7.30
2018-09-26T04:03:06.014Z,7.30
2018-09-26T04:05:34.387Z,7.30
2018-09-26T04:08:02.874Z,7.30
2018-09-26T04:10:31.249Z,7.20
2018-09-26T04:12:59.826Z,7.30
2018-09-26T04:15:28.189Z,7.30
2018-09-26T04:17:56.607Z,7.30
2018-09-26T04:20:25.728Z,7.30
2018-09-26T04:22:54.067Z,7.40
2018-09-26T04:25:22.553Z,7.30
2018-09-26T04:27:51.098Z,7.30
2018-09-26T04:30:19.575Z,7.40
2018-09-26T04:32:48.045Z,7.50
2018-09-26T04:35:16.350Z,7.50
2018-09-26T04:37:44.849Z,7.40
2018-09-26T04:40:13.251Z,7.40
2018-09-26T04:42:41.650Z,7.30
2018-09-26T04:45:10.717Z,7.20
2018-09-26T04:47:39.209Z,7.20
2018-09-26T04:50:08.169Z,7.30
2018-09-26T04:52:36.529Z,7.40
2018-09-26T04:55:04.983Z,7.40
2018-09-26T04:57:33.358Z,7.30
2018-09-26T05:00:01.798Z,7.40
2018-09-26T05:02:30.214Z,7.50
2018-09-26T05:04:58.858Z,7.30
2018-09-26T05:07:27.292Z,7.40
2018-09-26T05:09:55.660Z,7.20
2018-09-26T05:12:24.047Z,7.20
2018-09-26T05:14:52.511Z,7.10
2018-09-26T05:17:21.433Z,7.30
2018-09-26T05:19:49.792Z,7.30
2018-09-26T05:22:18.141Z,7.30
2018-09-26T05:24:46.538Z,7.20
2018-09-26T05:27:15.014Z,7.30
2018-09-26T05:29:43.464Z,7.30
2018-09-26T05:32:11.879Z,7.10
2018-09-26T05:34:40.805Z,6.90
2018-09-26T05:37:09.298Z,7.00
2018-09-26T05:39:37.687Z,7.10
2018-09-26T05:42:06.091Z,7.20
2018-09-26T05:44:34.576Z,7.40
2018-09-26T05:47:02.990Z,7.30
2018-09-26T05:49:31.402Z,7.20
2018-09-26T05:51:59.807Z,7.10
2018-09-26T05:54:28.220Z,7.20
2018-09-26T05:56:56.615Z,7.30
2018-09-26T05:59:25.049Z,7.30
2018-09-26T06:01:53.515Z,7.30
2018-09-26T06:04:21.941Z,7.40
2018-09-26T06:06:50.386Z,7.40
2018-09-26T06:09:18.735Z,7.50
2018-09-26T06:11:47.229Z,7.70
2018-09-26T06:14:15.656Z,7.70
2018-09-26T06:16:44.070Z,7.70
2018-09-26T06:19:12.515Z,7.80
2018-09-26T06:21:40.918Z,7.90
2018-09-26T06:24:09.463Z,8.10
2018-09-26T06:26:37.919Z,8.10
2018-09-26T06:29:06.540Z,8.00
2018-09-26T06:31:35.237Z,8.00
2018-09-26T06:34:03.742Z,8.10
2018-09-26T06:36:32.096Z,8.10
2018-09-26T06:39:01.212Z,8.20
2018-09-26T06:41:29.586Z,8.50
2018-09-26T06:43:57.974Z,8.40
2018-09-26T06:46:26.363Z,8.30
2018-09-26T06:48:54.854Z,8.70
2018-09-26T06:51:23.263Z,9.00
2018-09-26T06:53:51.866Z,9.10
2018-09-26T06:56:20.261Z,9.20
2018-09-26T06:58:48.667Z,9.30
2018-09-26T07:01:17.123Z,9.40
2018-09-26T07:03:46.172Z,9.50
2018-09-26T07:06:14.605Z,9.70
2018-09-26T07:08:43.743Z,9.70
2018-09-26T07:11:12.387Z,9.50
2018-09-26T07:13:40.751Z,9.60
2018-09-26T07:16:09.154Z,9.60
2018-09-26T07:18:37.764Z,9.80
2018-09-26T07:21:06.278Z,9.80
2018-09-26T07:23:34.703Z,9.80
2018-09-26T07:26:03.103Z,10.00
2018-09-26T07:28:31.522Z,9.80
2018-09-26T07:31:00.058Z,9.80
2018-09-26T07:33:28.573Z,9.80
2018-09-26T07:35:56.988Z,9.90
2018-09-26T07:38:25.438Z,10.00
2018-09-26T07:40:54.031Z,10.10
2018-09-26T07:43:22.514Z,10.00
2018-09-26T07:45:51.000Z,10.30
2018-09-26T07:48:19.364Z,10.40
2018-09-26T07:50:47.790Z,10.70
2018-09-26T07:53:16.220Z,10.70
2018-09-26T07:55:44.734Z,10.70
2018-09-26T07:58:13.889Z,11.00
2018-09-26T08:00:42.324Z,11.20
2018-09-26T08:03:10.821Z,11.40
2018-09-26T08:05:39.336Z,11.60
2018-09-26T08:08:08.622Z,11.80
2018-09-26T08:10:37.145Z,12.10
2018-09-26T08:13:06.507Z,12.30
2018-09-26T08:15:34.986Z,12.40
2018-09-26T08:18:03.505Z,12.50
2018-09-26T08:20:31.818Z,12.40
2018-09-26T08:23:00.251Z,12.50
2018-09-26T08:25:28.675Z,13.10
2018-09-26T08:27:57.114Z,13.50
2018-09-26T08:30:25.517Z,14.40
2018-09-26T08:32:54.007Z,15.30
2018-09-26T08:35:23.210Z,16.00
2018-09-26T08:37:51.731Z,16.00
2018-09-26T08:40:20.214Z,17.00
2018-09-26T08:42:48.650Z,17.40
2018-09-26T08:45:17.165Z,16.90
2018-09-26T08:47:45.611Z,17.80
2018-09-26T08:50:14.000Z,18.40
2018-09-26T08:52:42.448Z,17.50
2018-09-26T08:55:10.888Z,17.90
2018-09-26T08:57:39.318Z,17.90
2018-09-26T09:00:08.285Z,18.30
2018-09-26T09:02:37.459Z,19.30
2018-09-26T09:05:06.020Z,19.70
2018-09-26T09:07:34.383Z,19.90
2018-09-26T09:10:02.900Z,19.90
2018-09-26T09:12:31.250Z,19.80
2018-09-26T09:14:59.645Z,19.30
2018-09-26T09:17:28.248Z,20.10
2018-09-26T09:19:56.753Z,20.80
2018-09-26T09:22:25.229Z,21.10
2018-09-26T09:24:53.663Z,21.10
2018-09-26T09:27:22.186Z,21.10
2018-09-26T09:29:50.534Z,21.90
2018-09-26T09:32:18.963Z,21.80
2018-09-26T09:34:47.297Z,21.90
2018-09-26T09:37:15.746Z,22.50
2018-09-26T09:39:44.371Z,22.80
2018-09-26T09:42:13.690Z,22.10
2018-09-26T09:44:42.931Z,21.90
2018-09-26T09:47:11.480Z,21.20
2018-09-26T09:49:40.557Z,21.10
2018-09-26T09:52:08.984Z,21.00
2018-09-26T09:54:37.478Z,20.80
2018-09-26T09:57:05.962Z,20.50
2018-09-26T09:59:34.371Z,19.90
2018-09-26T10:02:03.472Z,19.50
2018-09-26T10:04:31.998Z,18.70
2018-09-26T10:07:00.609Z,18.50
2018-09-26T10:09:29.562Z,17.90
2018-09-26T10:11:58.041Z,18.60
2018-09-26T10:14:26.503Z,19.40
2018-09-26T10:16:54.918Z,19.80
2018-09-26T10:19:23.538Z,19.90
2018-09-26T10:21:52.516Z,20.10
2018-09-26T10:24:20.875Z,20.10
2018-09-26T10:26:49.258Z,20.40
2018-09-26T10:29:17.631Z,20.80
2018-09-26T10:31:46.002Z,20.80
2018-09-26T10:34:14.474Z,20.90
2018-09-26T10:36:42.859Z,20.70
2018-09-26T10:39:11.915Z,20.90
2018-09-26T10:41:40.255Z,20.00
2018-09-26T10:44:08.912Z,19.10
2018-09-26T10:46:37.442Z,19.50
2018-09-26T10:49:05.772Z,19.70
2018-09-26T10:51:34.161Z,19.50
2018-09-26T10:54:02.532Z,19.30
2018-09-26T10:56:31.913Z,19.40
2018-09-26T10:59:00.555Z,19.30
2018-09-26T11:01:28.930Z,19.10
2018-09-26T11:03:57.335Z,19.30
2018-09-26T11:06:25.792Z,19.00
2018-09-26T11:08:54.186Z,18.70
2018-09-26T11:11:22.577Z,18.80
2018-09-26T11:13:51.134Z,18.70
2018-09-26T11:16:20.112Z,18.70
2018-09-26T11:18:48.519Z,18.90
2018-09-26T11:21:16.822Z,18.80
2018-09-26T11:23:45.278Z,19.00
2018-09-26T11:26:13.819Z,19.60
2018-09-26T11:28:42.148Z,20.20
2018-09-26T11:31:10.525Z,20.30
2018-09-26T11:33:39.528Z,20.70
2018-09-26T11:36:07.870Z,20.90
2018-09-26T11:38:36.252Z,20.40
2018-09-26T11:41:04.658Z,19.90
2018-09-26T11:43:33.011Z,19.30
2018-09-26T11:46:01.421Z,19.00
2018-09-26T11:48:29.801Z,18.60
2018-09-26T11:50:58.337Z,18.90
2018-09-26T11:53:26.696Z,19.30
2018-09-26T11:55:55.819Z,19.50
2018-09-26T11:58:24.856Z,20.20
2018-09-26T12:00:53.759Z,20.60
2018-09-26T12:03:22.212Z,20.50
2018-09-26T12:05:50.742Z,20.30
2018-09-26T12:08:19.317Z,20.20
2018-09-26T12:10:47.583Z,20.10
2018-09-26T12:13:15.971Z,19.60
2018-09-26T12:15:44.506Z,19.30
2018-09-26T12:18:12.957Z,18.90
2018-09-26T12:20:41.411Z,18.50
2018-09-26T12:23:09.832Z,18.90
2018-09-26T12:25:38.213Z,18.90
2018-09-26T12:28:06.629Z,19.00
2018-09-26T12:30:35.129Z,18.90
2018-09-26T12:33:03.643Z,18.70
2018-09-26T12:35:32.010Z,18.80
2018-09-26T12:38:00.410Z,18.90
2018-09-26T12:40:28.833Z,18.80
2018-09-26T12:42:57.804Z,18.90
2018-09-26T12:45:26.470Z,19.00
2018-09-26T12:47:54.910Z,19.30
2018-09-26T12:50:23.199Z,19.70
2018-09-26T12:52:51.633Z,19.90
2018-09-26T12:55:20.554Z,19.80
2018-09-26T12:57:48.907Z,19.60
2018-09-26T13:00:17.388Z,19.70
2018-09-26T13:02:45.804Z,19.90
2018-09-26T13:05:14.080Z,19.60
2018-09-26T13:07:42.604Z,20.20
2018-09-26T13:10:11.066Z,20.90
2018-09-26T13:12:39.372Z,21.80
2018-09-26T13:15:07.766Z,22.50
2018-09-26T13:17:36.142Z,23.20
2018-09-26T13:20:05.232Z,22.40
2018-09-26T13:22:33.552Z,21.80
2018-09-26T13:25:01.995Z,21.40
2018-09-26T13:27:30.341Z,21.20
2018-09-26T13:29:58.750Z,20.90
2018-09-26T13:32:27.266Z,20.50
2018-09-26T13:34:55.553Z,20.20
2018-09-26T13:37:24.542Z,20.30
2018-09-26T13:39:52.959Z,20.00
2018-09-26T13:42:22.030Z,19.90
2018-09-26T13:44:50.363Z,20.00
2018-09-26T13:47:18.838Z,20.10
2018-09-26T13:49:47.343Z,20.10
2018-09-26T13:52:15.722Z,19.80
2018-09-26T13:54:44.189Z,19.50
2018-09-26T13:57:12.551Z,19.40
2018-09-26T13:59:41.015Z,19.40
2018-09-26T14:02:09.393Z,19.50
2018-09-26T14:04:37.864Z,19.30
2018-09-26T14:07:06.490Z,19.10
2018-09-26T14:09:34.940Z,19.30
2018-09-26T14:12:03.775Z,19.30
2018-09-26T14:14:32.127Z,19.20
2018-09-26T14:17:00.469Z,19.30
2018-09-26T14:19:29.495Z,19.20
2018-09-26T14:21:57.878Z,19.10
2018-09-26T14:24:26.262Z,19.30
2018-09-26T14:26:55.457Z,19.40
2018-09-26T14:29:24.505Z,19.50
2018-09-26T14:31:52.837Z,19.50
2018-09-26T14:34:21.197Z,19.40
2018-09-26T14:36:50.296Z,19.50
2018-09-26T14:39:18.727Z,19.60
2018-09-26T14:41:47.153Z,19.40
2018-09-26T14:44:15.628Z,19.60
2018-09-26T14:46:44.015Z,19.70
2018-09-26T14:49:12.496Z,20.10
2018-09-26T14:51:40.856Z,20.20
2018-09-26T14:54:09.308Z,20.10
2018-09-26T14:56:37.641Z,20.60
2018-09-26T14:59:06.227Z,20.40
2018-09-26T15:01:35.165Z,20.80
2018-09-26T15:04:04.245Z,20.60
2018-09-26T15:06:32.569Z,20.70
2018-09-26T15:09:01.007Z,20.90
2018-09-26T15:11:29.778Z,20.90
2018-09-26T15:13:58.722Z,20.90
2018-09-26T15:16:27.682Z,20.90
2018-09-26T15:18:56.244Z,20.70
2018-09-26T15:21:24.544Z,20.90
2018-09-26T15:23:52.928Z,20.80
2018-09-26T15:26:21.393Z,20.70
2018-09-26T15:28:49.863Z,20.80
2018-09-26T15:31:18.563Z,21.00
2018-09-26T15:33:46.954Z,20.60
2018-09-26T15:36:15.434Z,20.30
2018-09-26T15:38:43.815Z,20.30
2018-09-26T15:41:12.391Z,20.20
2018-09-26T15:43:41.274Z,20.00
2018-09-26T15:46:09.905Z,19.70
2018-09-26T15:48:38.312Z,19.70
2018-09-26T15:51:07.233Z,19.60
2018-09-26T15:53:36.267Z,19.50
2018-09-26T15:56:04.675Z,19.30
2018-09-26T15:58:33.592Z,19.10
2018-09-26T16:01:02.718Z,19.00
2018-09-26T16:03:31.041Z,18.90
2018-09-26T16:05:59.483Z,18.70
2018-09-26T16:08:27.949Z,18.80
2018-09-26T16:10:56.303Z,18.80
2018-09-26T16:13:24.664Z,18.70
2018-09-26T16:15:53.590Z,18.70
2018-09-26T16:18:22.056Z,18.60
2018-09-26T16:20:50.435Z,18.40
2018-09-26T16:23:18.885Z,18.30
2018-09-26T16:25:47.270Z,18.30
2018-09-26T16:28:15.666Z,18.20
2018-09-26T16:30:44.100Z,18.10
2018-09-26T16:33:12.514Z,18.00
2018-09-26T16:35:40.932Z,18.00
2018-09-26T16:38:09.319Z,18.00
2018-09-26T16:40:37.712Z,17.90
2018-09-26T16:43:06.378Z,17.80
2018-09-26T16:45:34.801Z,17.80
2018-09-26T16:48:03.175Z,17.80
2018-09-26T16:50:31.510Z,17.60
2018-09-26T16:52:59.943Z,17.50
2018-09-26T16:55:28.533Z,17.40
2018-09-26T16:57:57.288Z,17.50
2018-09-26T17:00:25.777Z,17.40
2018-09-26T17:02:54.180Z,17.10
2018-09-26T17:05:22.690Z,17.10
2018-09-26T17:07:51.280Z,17.00
2018-09-26T17:10:19.692Z,17.10
2018-09-26T17:12:48.143Z,17.10
2018-09-26T17:15:16.490Z,17.00
2018-09-26T17:17:44.889Z,17.00
2018-09-26T17:20:13.276Z,16.80
2018-09-26T17:22:41.698Z,16.70
2018-09-26T17:25:10.088Z,16.60
2018-09-26T17:27:38.694Z,16.50
2018-09-26T17:30:07.090Z,16.50
2018-09-26T17:32:36.088Z,16.40
2018-09-26T17:35:04.581Z,16.40
2018-09-26T17:37:33.687Z,16.40
2018-09-26T17:40:02.077Z,16.40
2018-09-26T17:42:30.453Z,16.20
2018-09-26T17:44:59.611Z,16.10
2018-09-26T17:47:27.953Z,16.10
2018-09-26T17:49:56.511Z,16.10
2018-09-26T17:52:25.592Z,16.00
2018-09-26T17:54:53.929Z,15.80
2018-09-26T17:57:23.156Z,15.70
2018-09-26T17:59:51.613Z,15.60
2018-09-26T18:02:19.983Z,15.50
2018-09-26T18:04:48.367Z,15.40
2018-09-26T18:07:17.307Z,15.40
2018-09-26T18:09:45.688Z,15.40
2018-09-26T18:12:14.115Z,15.40
2018-09-26T18:14:43.373Z,15.40
2018-09-26T18:17:11.791Z,15.30
2018-09-26T18:19:40.286Z,15.30
2018-09-26T18:22:08.810Z,15.20
2018-09-26T18:24:37.206Z,15.10
2018-09-26T18:27:05.759Z,15.10
2018-09-26T18:29:34.274Z,15.00
2018-09-26T18:32:02.689Z,14.90
2018-09-26T18:34:31.214Z,15.00
2018-09-26T18:36:59.785Z,14.90
2018-09-26T18:39:28.245Z,14.90
2018-09-26T18:41:56.644Z,14.90
2018-09-26T18:44:25.014Z,14.90
2018-09-26T18:46:53.585Z,14.90
2018-09-26T18:49:22.091Z,15.00
2018-09-26T18:51:50.647Z,14.90
2018-09-26T18:54:19.104Z,15.00
2018-09-26T18:56:47.547Z,15.00
2018-09-26T18:59:16.055Z,14.90
2018-09-26T19:01:44.419Z,14.60
2018-09-26T19:04:13.169Z,14.40
2018-09-26T19:06:42.448Z,14.40
2018-09-26T19:09:11.466Z,14.30
2018-09-26T19:11:39.925Z,14.30
2018-09-26T19:14:08.427Z,14.20
2018-09-26T19:16:37.069Z,14.10
2018-09-26T19:19:05.724Z,14.10
2018-09-26T19:21:34.649Z,14.10
2018-09-26T19:24:02.982Z,14.10
2018-09-26T19:26:31.379Z,14.00
2018-09-26T19:28:59.883Z,14.00
2018-09-26T19:31:28.285Z,13.90
2018-09-26T19:33:56.727Z,13.90
2018-09-26T19:36:26.001Z,13.80
2018-09-26T19:38:54.485Z,13.90
2018-09-26T19:41:22.829Z,13.90
2018-09-26T19:43:51.368Z,14.00
2018-09-26T19:46:19.728Z,13.90
2018-09-26T19:48:48.257Z,13.90
2018-09-26T19:51:16.694Z,13.90
2018-09-26T19:53:45.123Z,14.00
2018-09-26T19:56:13.705Z,13.80
2018-09-26T19:58:42.280Z,13.70
2018-09-26T20:01:10.683Z,13.60
2018-09-26T20:03:39.059Z,13.60
2018-09-26T20:06:07.475Z,13.60
2018-09-26T20:08:35.862Z,13.60
2018-09-26T20:11:04.409Z,13.40
2018-09-26T20:13:32.811Z,13.50
2018-09-26T20:16:01.204Z,13.50
2018-09-26T20:18:30.386Z,13.40
2018-09-26T20:20:58.814Z,13.40
2018-09-26T20:23:27.401Z,13.40
2018-09-26T20:25:55.630Z,13.20
2018-09-26T20:28:24.044Z,13.10
2018-09-26T20:30:52.513Z,13.10
2018-09-26T20:33:21.679Z,13.10
2018-09-26T20:35:50.138Z,13.00
2018-09-26T20:38:18.575Z,13.00
2018-09-26T20:40:46.993Z,12.90
2018-09-26T20:43:15.549Z,12.80
2018-09-26T20:45:43.959Z,12.60
2018-09-26T20:48:12.481Z,12.60
2018-09-26T20:50:41.031Z,12.60
2018-09-26T20:53:09.384Z,12.60
2018-09-26T20:55:37.783Z,12.60
2018-09-26T20:58:06.336Z,12.50
2018-09-26T21:00:34.786Z,12.50
2018-09-26T21:03:04.363Z,12.40
2018-09-26T21:05:32.863Z,12.40
2018-09-26T21:08:02.014Z,12.50
2018-09-26T21:10:30.457Z,12.40
2018-09-26T21:12:58.930Z,12.50
2018-09-26T21:15:27.394Z,12.40
2018-09-26T21:17:55.809Z,12.40
2018-09-26T21:20:24.845Z,12.40
2018-09-26T21:22:53.313Z,12.30
2018-09-26T21:25:21.716Z,12.30
2018-09-26T21:27:50.085Z,12.30
2018-09-26T21:30:18.635Z,12.30
2018-09-26T21:32:47.741Z,12.20
2018-09-26T21:35:16.255Z,12.20
2018-09-26T21:37:44.762Z,12.20
2018-09-26T21:40:13.240Z,12.10
2018-09-26T21:42:41.636Z,12.10
2018-09-26T21:45:10.104Z,12.10
2018-09-26T21:47:38.629Z,12.20
2018-09-26T21:50:07.500Z,12.10
2018-09-26T21:52:36.033Z,12.10
2018-09-26T21:55:04.551Z,12.10
2018-09-26T21:57:32.971Z,12.00
2018-09-26T22:00:01.448Z,11.90
2018-09-26T22:02:30.008Z,12.00
2018-09-26T22:04:59.300Z,12.10
2018-09-26T22:07:27.936Z,12.20
2018-09-26T22:09:56.513Z,12.20
2018-09-26T22:12:25.153Z,12.00
2018-09-26T22:14:54.274Z,12.10
2018-09-26T22:17:23.388Z,11.90
2018-09-26T22:19:51.970Z,12.10
2018-09-26T22:22:20.638Z,12.10
2018-09-26T22:24:49.150Z,11.90
2018-09-26T22:27:17.735Z,11.80
2018-09-26T22:29:46.292Z,11.70
2018-09-26T22:32:15.037Z,11.70
2018-09-26T22:34:43.653Z,11.80
2018-09-26T22:37:12.462Z,11.80
2018-09-26T22:39:41.240Z,11.70
2018-09-26T22:42:10.846Z,11.70
2018-09-26T22:44:39.704Z,11.80
2018-09-26T22:47:08.283Z,11.80
2018-09-26T22:49:37.083Z,11.70
2018-09-26T22:52:06.053Z,11.60
2018-09-26T22:54:35.104Z,11.60
2018-09-26T22:57:05.655Z,11.60
2018-09-26T22:59:34.521Z,11.50
2018-09-26T23:02:03.640Z,11.70
2018-09-26T23:04:32.137Z,11.70
2018-09-26T23:07:00.587Z,11.60
2018-09-26T23:09:29.088Z,11.70
2018-09-26T23:11:57.548Z,11.70
2018-09-26T23:14:26.081Z,11.60
2018-09-26T23:16:54.640Z,11.50
2018-09-26T23:19:23.202Z,11.50
2018-09-26T23:21:51.744Z,11.50
2018-09-26T23:24:20.207Z,11.50
2018-09-26T23:26:48.865Z,11.50
2018-09-26T23:29:17.400Z,11.40
2018-09-26T23:31:46.614Z,11.30
2018-09-26T23:34:15.824Z,11.30
2018-09-26T23:36:44.303Z,11.30
2018-09-26T23:39:12.811Z,11.30
2018-09-26T23:41:41.350Z,11.30
2018-09-26T23:44:10.198Z,11.30
2018-09-26T23:46:38.763Z,11.20
2018-09-26T23:49:07.279Z,11.20
2018-09-26T23:51:35.825Z,11.20
2018-09-26T23:54:04.516Z,11.20
2018-09-26T23:56:32.980Z,11.20
2018-09-26T23:59:01.508Z,11.20
